Time;durP1;ratioP1;P1;durP2;ratioP2;P2;SDS_P1;SDS_P2;PMS_P1;PMS_P2;Temp;Humidity;BMP_temperature;BMP_pressure;BME280_temperature;BME280_humidity;BME280_pressure;Samples;Min_cycle;Max_cycle;Signal;HPM_P1;HPM_P2
2022/03/31 00:00:15;;;;;;;3.40;2.10;;;;;;;;;;5096805;28;20028;-83
2022/03/31 00:02:41;;;;;;;3.40;2.38;;;;;;;;;;5046839;28;20104;-82
2022/03/31 00:05:07;;;;;;;4.50;2.35;;;;;;;;;;5045920;28;20032;-82
2022/03/31 00:07:34;;;;;;;3.55;2.72;;;;;;;;;;5062886;28;20059;-82
2022/03/31 00:10:00;;;;;;;4.18;2.45;;;;;;;;;;5046714;28;20028;-81
2022/03/31 00:12:25;;;;;;;3.70;2.25;;;;;;;;;;5062956;28;20063;-82
2022/03/31 00:14:51;;;;;;;3.72;2.38;;;;;;;;;;5052355;28;20444;-81
2022/03/31 00:17:16;;;;;;;4.22;2.65;;;;;;;;;;5077001;28;20402;-81
2022/03/31 00:19:42;;;;;;;3.83;2.10;;;;;;;;;;5042772;28;20109;-81
2022/03/31 00:22:07;;;;;;;3.80;2.42;;;;;;;;;;5059554;28;20078;-81
2022/03/31 00:24:34;;;;;;;3.67;2.22;;;;;;;;;;5058970;28;20036;-81
2022/03/31 00:26:59;;;;;;;3.10;2.28;;;;;;;;;;5076590;28;20032;-81
2022/03/31 00:29:25;;;;;;;3.92;2.35;;;;;;;;;;5076447;28;20570;-81
2022/03/31 00:31:50;;;;;;;4.07;2.60;;;;;;;;;;5076216;28;20417;-81
2022/03/31 00:34:18;;;;;;;4.72;2.55;;;;;;;;;;5092662;28;20425;-82
2022/03/31 00:36:43;;;;;;;4.70;2.88;;;;;;;;;;5076155;28;20081;-82
2022/03/31 00:41:53;;;;;;;6.45;3.00;;;;;;;;;;5099063;28;20067;-82
2022/03/31 00:44:19;;;;;;;4.72;2.90;;;;;;;;;;5062702;28;20031;-82
2022/03/31 00:46:52;;;;;;;4.47;2.40;;;;;;;;;;5062344;28;20126;-82
2022/03/31 00:49:20;;;;;;;4.28;2.85;;;;;;;;;;5076167;28;20047;-82
2022/03/31 00:51:47;;;;;;;4.80;3.15;;;;;;;;;;5076062;28;20513;-82
2022/03/31 00:54:13;;;;;;;3.50;2.70;;;;;;;;;;5041980;28;20035;-82
2022/03/31 00:56:39;;;;;;;4.30;2.65;;;;;;;;;;5042849;28;20464;-81
2022/03/31 00:59:05;;;;;;;3.50;2.58;;;;;;;;;;5096126;28;20061;-81
2022/03/31 01:01:32;;;;;;;4.30;3.00;;;;;;;;;;5062513;28;20051;-82
2022/03/31 01:03:58;;;;;;;3.95;2.42;;;;;;;;;;5062075;28;20028;-81
2022/03/31 01:06:24;;;;;;;3.22;2.50;;;;;;;;;;5079479;28;20039;-81
2022/03/31 01:08:49;;;;;;;5.32;3.38;;;;;;;;;;5079233;28;20038;-81
2022/03/31 01:11:15;;;;;;;4.35;2.70;;;;;;;;;;5078836;28;20040;-82
2022/03/31 01:13:40;;;;;;;4.18;2.70;;;;;;;;;;5075505;28;20402;-82
2022/03/31 01:16:06;;;;;;;3.90;2.85;;;;;;;;;;5058360;28;20383;-82
2022/03/31 01:18:31;;;;;;;3.67;2.78;;;;;;;;;;5058822;28;20383;-81
2022/03/31 01:20:57;;;;;;;4.43;2.30;;;;;;;;;;5042119;28;20036;-82
2022/03/31 01:23:22;;;;;;;4.97;2.80;;;;;;;;;;5045041;28;20131;-82
2022/03/31 01:25:49;;;;;;;5.28;2.70;;;;;;;;;;5074750;28;20452;-82
2022/03/31 01:28:14;;;;;;;4.93;3.13;;;;;;;;;;5058678;28;20032;-82
2022/03/31 01:30:41;;;;;;;4.10;2.80;;;;;;;;;;5074932;28;20055;-83
2022/03/31 01:33:06;;;;;;;3.97;3.03;;;;;;;;;;5074825;28;20043;-83
2022/03/31 01:35:32;;;;;;;4.43;3.05;;;;;;;;;;5074739;28;20064;-83
2022/03/31 01:37:57;;;;;;;6.22;3.85;;;;;;;;;;5058115;28;20066;-83
2022/03/31 01:40:23;;;;;;;5.93;4.00;;;;;;;;;;5074939;28;20040;-84
2022/03/31 01:42:49;;;;;;;4.70;3.20;;;;;;;;;;5075387;28;20406;-84
2022/03/31 01:45:15;;;;;;;4.82;3.42;;;;;;;;;;5057696;28;20032;-84
2022/03/31 01:47:41;;;;;;;4.20;3.03;;;;;;;;;;5058074;28;20056;-83
2022/03/31 01:50:10;;;;;;;5.80;3.17;;;;;;;;;;5091697;28;20051;-83
2022/03/31 01:52:40;;;;;;;4.88;3.38;;;;;;;;;;5091724;28;20077;-83
2022/03/31 01:55:06;;;;;;;5.70;3.38;;;;;;;;;;5074495;28;20036;-82
2022/03/31 01:57:31;;;;;;;5.43;3.58;;;;;;;;;;5061121;28;20028;-81
2022/03/31 02:00:02;;;;;;;4.97;3.20;;;;;;;;;;5094551;28;20504;-83
2022/03/31 02:02:27;;;;;;;5.75;3.35;;;;;;;;;;5079461;28;20122;-82
2022/03/31 02:04:53;;;;;;;5.05;3.38;;;;;;;;;;5061066;28;20035;-82
2022/03/31 02:07:19;;;;;;;4.70;3.17;;;;;;;;;;5061211;28;20051;-82
2022/03/31 02:09:44;;;;;;;5.20;3.55;;;;;;;;;;5078148;28;20089;-82
2022/03/31 02:12:10;;;;;;;4.72;3.53;;;;;;;;;;5077991;28;20031;-82
2022/03/31 02:14:41;;;;;;;5.25;3.60;;;;;;;;;;5057005;28;20044;-83
2022/03/31 02:17:11;;;;;;;7.28;4.20;;;;;;;;;;5042101;28;20409;-82
2022/03/31 02:19:36;;;;;;;6.28;3.80;;;;;;;;;;5041752;28;20044;-83
2022/03/31 02:22:02;;;;;;;5.03;3.67;;;;;;;;;;5040978;28;20567;-82
2022/03/31 02:24:30;;;;;;;6.47;3.67;;;;;;;;;;5056705;28;20036;-83
2022/03/31 02:26:56;;;;;;;5.88;4.00;;;;;;;;;;5066579;28;20040;-83
2022/03/31 02:29:22;;;;;;;5.07;3.63;;;;;;;;;;5074132;28;20040;-84
2022/03/31 02:31:48;;;;;;;5.38;4.03;;;;;;;;;;5057495;28;20093;-83
2022/03/31 02:34:14;;;;;;;4.85;3.58;;;;;;;;;;5057412;28;20059;-83
2022/03/31 02:36:43;;;;;;;5.25;4.40;;;;;;;;;;5072653;28;20532;-83
2022/03/31 02:39:08;;;;;;;5.43;4.05;;;;;;;;;;5057640;28;20032;-83
2022/03/31 02:41:35;;;;;;;5.40;3.90;;;;;;;;;;5057322;28;20394;-81
2022/03/31 02:44:00;;;;;;;5.55;4.03;;;;;;;;;;5073671;28;20440;-82
2022/03/31 02:46:27;;;;;;;4.85;3.67;;;;;;;;;;5056963;28;20094;-82
2022/03/31 02:48:54;;;;;;;4.68;3.75;;;;;;;;;;5057363;28;20032;-82
2022/03/31 02:51:19;;;;;;;4.75;4.03;;;;;;;;;;5073997;28;20051;-82
2022/03/31 02:56:30;;;;;;;5.97;4.13;;;;;;;;;;5061874;28;20071;-82
2022/03/31 02:58:56;;;;;;;5.35;4.32;;;;;;;;;;5092716;28;20035;-82
2022/03/31 03:01:22;;;;;;;5.07;3.90;;;;;;;;;;5094023;28;20036;-82
2022/03/31 03:03:50;;;;;;;6.07;4.22;;;;;;;;;;5060568;28;20035;-82
2022/03/31 03:06:15;;;;;;;6.20;4.43;;;;;;;;;;5060665;28;20027;-82
2022/03/31 03:08:41;;;;;;;5.22;4.18;;;;;;;;;;5060068;28;20034;-82
2022/03/31 03:11:08;;;;;;;5.85;4.35;;;;;;;;;;5060444;28;20084;-83
2022/03/31 03:13:35;;;;;;;6.10;4.15;;;;;;;;;;5077098;28;20142;-82
2022/03/31 03:16:05;;;;;;;6.78;4.40;;;;;;;;;;5060550;28;20122;-83
2022/03/31 03:18:32;;;;;;;5.57;4.40;;;;;;;;;;5061274;28;20050;-82
2022/03/31 03:20:57;;;;;;;7.15;4.80;;;;;;;;;;5065005;28;20032;-82
2022/03/31 03:23:23;;;;;;;5.75;4.85;;;;;;;;;;5046336;28;20043;-82
2022/03/31 03:25:48;;;;;;;5.15;4.45;;;;;;;;;;5059765;28;20040;-82
2022/03/31 03:28:13;;;;;;;6.30;4.97;;;;;;;;;;5060162;28;20027;-83
2022/03/31 03:30:39;;;;;;;5.95;4.65;;;;;;;;;;5077019;28;20042;-83
2022/03/31 03:33:05;;;;;;;5.47;4.63;;;;;;;;;;5059451;28;20027;-82
2022/03/31 03:35:31;;;;;;;6.07;4.65;;;;;;;;;;5059901;28;20031;-82
2022/03/31 03:37:56;;;;;;;6.22;4.43;;;;;;;;;;5059779;28;20123;-82
2022/03/31 03:40:22;;;;;;;7.10;4.40;;;;;;;;;;5060145;28;20035;-82
2022/03/31 03:42:49;;;;;;;6.65;4.65;;;;;;;;;;5060114;28;20039;-82
2022/03/31 03:45:15;;;;;;;5.78;4.75;;;;;;;;;;5076428;28;20032;-82
2022/03/31 03:47:41;;;;;;;6.00;4.65;;;;;;;;;;5059844;28;20031;-82
2022/03/31 03:50:07;;;;;;;6.40;4.60;;;;;;;;;;5075272;28;20040;-82
2022/03/31 03:52:33;;;;;;;5.88;4.50;;;;;;;;;;5043925;28;20089;-83
2022/03/31 03:54:59;;;;;;;5.85;5.00;;;;;;;;;;5043493;28;20051;-82
2022/03/31 03:57:24;;;;;;;5.60;4.75;;;;;;;;;;5059946;28;20032;-82
2022/03/31 03:59:50;;;;;;;5.90;4.35;;;;;;;;;;5054315;28;20039;-82
2022/03/31 04:02:15;;;;;;;5.95;4.70;;;;;;;;;;5080293;28;20028;-82
2022/03/31 04:04:40;;;;;;;5.75;4.72;;;;;;;;;;5079787;28;20040;-83
2022/03/31 04:07:06;;;;;;;6.20;4.38;;;;;;;;;;5079595;28;20111;-83
2022/03/31 04:09:31;;;;;;;6.03;4.32;;;;;;;;;;5063434;28;20554;-82
2022/03/31 04:11:57;;;;;;;5.35;4.10;;;;;;;;;;5080032;28;20133;-82
2022/03/31 04:14:22;;;;;;;5.07;4.57;;;;;;;;;;5079727;28;20031;-82
2022/03/31 04:16:48;;;;;;;6.30;4.82;;;;;;;;;;5079744;28;20520;-82
2022/03/31 04:19:13;;;;;;;6.90;4.43;;;;;;;;;;5063114;28;20036;-82
2022/03/31 04:21:40;;;;;;;6.20;3.72;;;;;;;;;;5062735;28;20043;-82
2022/03/31 04:24:06;;;;;;;7.18;5.18;;;;;;;;;;5059647;28;20030;-83
2022/03/31 04:26:32;;;;;;;6.15;5.00;;;;;;;;;;5042460;28;20032;-83
2022/03/31 04:28:57;;;;;;;5.28;4.30;;;;;;;;;;5059344;28;20490;-83
2022/03/31 04:31:23;;;;;;;5.85;4.50;;;;;;;;;;5059577;28;20817;-83
2022/03/31 04:33:49;;;;;;;6.07;4.78;;;;;;;;;;5042818;28;20040;-82
2022/03/31 04:36:14;;;;;;;6.03;5.07;;;;;;;;;;5042469;28;20050;-82
2022/03/31 04:38:40;;;;;;;6.93;4.30;;;;;;;;;;5059379;28;20097;-82
2022/03/31 04:41:05;;;;;;;5.72;4.68;;;;;;;;;;5059333;28;20047;-83
2022/03/31 04:43:31;;;;;;;5.80;4.68;;;;;;;;;;5043004;28;20043;-83
2022/03/31 04:45:56;;;;;;;6.70;4.43;;;;;;;;;;5042374;28;20039;-83
2022/03/31 04:48:23;;;;;;;6.47;4.50;;;;;;;;;;5059353;28;20063;-83
2022/03/31 04:50:48;;;;;;;6.10;4.60;;;;;;;;;;5059183;28;20134;-83
2022/03/31 04:53:14;;;;;;;5.72;4.47;;;;;;;;;;5076048;28;20089;-83
2022/03/31 04:55:40;;;;;;;6.53;4.22;;;;;;;;;;5075627;28;20044;-82
2022/03/31 04:58:05;;;;;;;5.28;4.68;;;;;;;;;;5092643;28;20032;-82
2022/03/31 05:00:31;;;;;;;5.20;4.13;;;;;;;;;;5061675;28;20107;-82
2022/03/31 05:02:59;;;;;;;4.35;3.90;;;;;;;;;;5079415;28;20074;-81
2022/03/31 05:05:24;;;;;;;5.68;4.18;;;;;;;;;;5058425;28;20060;-82
2022/03/31 05:07:50;;;;;;;6.93;4.22;;;;;;;;;;5058443;28;20063;-81
2022/03/31 05:10:16;;;;;;;6.85;4.68;;;;;;;;;;5057700;28;20059;-82
2022/03/31 05:12:41;;;;;;;6.63;4.78;;;;;;;;;;5075786;28;20036;-81
2022/03/31 05:15:07;;;;;;;5.57;4.22;;;;;;;;;;5071069;28;20034;-83
2022/03/31 05:17:34;;;;;;;5.70;4.32;;;;;;;;;;5078457;28;20412;-84
2022/03/31 05:20:03;;;;;;;6.70;4.47;;;;;;;;;;5078771;28;20031;-84
2022/03/31 05:22:30;;;;;;;5.47;4.03;;;;;;;;;;5062849;28;20059;-82
2022/03/31 05:24:55;;;;;;;6.15;3.92;;;;;;;;;;5057985;28;20082;-83
2022/03/31 05:27:22;;;;;;;6.72;4.40;;;;;;;;;;5042200;28;20032;-84
2022/03/31 05:29:49;;;;;;;5.72;4.10;;;;;;;;;;5041847;28;20449;-85
2022/03/31 05:32:15;;;;;;;10.52;4.47;;;;;;;;;;5059165;28;20118;-81
2022/03/31 05:34:40;;;;;;;5.75;3.55;;;;;;;;;;5058601;28;20044;-80
2022/03/31 05:37:06;;;;;;;8.98;4.50;;;;;;;;;;5041726;28;20077;-81
2022/03/31 05:39:32;;;;;;;6.32;4.05;;;;;;;;;;5057773;28;20376;-80
2022/03/31 05:41:58;;;;;;;9.75;5.07;;;;;;;;;;5058001;28;20044;-81
2022/03/31 05:44:23;;;;;;;14.07;4.47;;;;;;;;;;5041603;28;20145;-82
2022/03/31 05:46:49;;;;;;;11.15;4.47;;;;;;;;;;5071971;28;20043;-82
2022/03/31 05:49:14;;;;;;;11.27;4.20;;;;;;;;;;5074355;28;20122;-82
2022/03/31 05:51:40;;;;;;;10.80;4.57;;;;;;;;;;5058116;28;20043;-83
2022/03/31 05:54:05;;;;;;;11.45;4.57;;;;;;;;;;5074345;28;20035;-82
2022/03/31 05:56:31;;;;;;;8.88;4.20;;;;;;;;;;5058141;28;20036;-83
2022/03/31 05:58:56;;;;;;;5.78;3.80;;;;;;;;;;5074583;28;20035;-82
2022/03/31 06:01:22;;;;;;;10.88;3.75;;;;;;;;;;5057687;28;20047;-82
2022/03/31 06:03:47;;;;;;;11.00;4.97;;;;;;;;;;5058001;28;20115;-82
2022/03/31 06:06:13;;;;;;;6.78;3.90;;;;;;;;;;5074254;28;20044;-82
2022/03/31 06:08:38;;;;;;;9.07;4.32;;;;;;;;;;5057937;28;20036;-82
2022/03/31 06:11:04;;;;;;;11.15;6.00;;;;;;;;;;5091034;28;20092;-82
2022/03/31 06:13:29;;;;;;;10.35;4.50;;;;;;;;;;5092419;28;20036;-82
2022/03/31 06:15:54;;;;;;;9.48;4.88;;;;;;;;;;5077216;28;20402;-81
2022/03/31 06:18:22;;;;;;;8.48;4.72;;;;;;;;;;5090647;28;20127;-82
2022/03/31 06:20:47;;;;;;;10.65;4.47;;;;;;;;;;5057261;28;20024;-81
2022/03/31 06:23:13;;;;;;;8.23;3.85;;;;;;;;;;5089489;28;20123;-80
2022/03/31 06:25:41;;;;;;;11.65;3.97;;;;;;;;;;5073912;28;20063;-80
2022/03/31 06:28:07;;;;;;;13.27;4.75;;;;;;;;;;5056960;28;20024;-80
2022/03/31 06:30:32;;;;;;;10.52;5.35;;;;;;;;;;5088906;28;20119;-80
2022/03/31 06:32:58;;;;;;;7.22;4.50;;;;;;;;;;5089546;28;20042;-80
2022/03/31 06:35:23;;;;;;;11.18;4.47;;;;;;;;;;5073504;28;20518;-80
2022/03/31 06:37:49;;;;;;;6.25;4.15;;;;;;;;;;5073538;28;20430;-80
2022/03/31 06:40:15;;;;;;;11.32;4.38;;;;;;;;;;5090725;28;20470;-80
2022/03/31 06:42:41;;;;;;;5.28;3.80;;;;;;;;;;5057250;28;20451;-80
2022/03/31 06:45:12;;;;;;;6.53;3.90;;;;;;;;;;5073459;28;20035;-80
2022/03/31 06:47:37;;;;;;;9.18;4.60;;;;;;;;;;5099504;28;20023;-80
2022/03/31 06:50:04;;;;;;;8.43;3.85;;;;;;;;;;5060263;28;20880;-81
2022/03/31 06:52:29;;;;;;;5.35;3.58;;;;;;;;;;5077299;28;20459;-80
2022/03/31 06:54:54;;;;;;;9.60;4.22;;;;;;;;;;5076539;28;20039;-80
2022/03/31 06:57:20;;;;;;;7.43;3.85;;;;;;;;;;5094393;28;20043;-80
2022/03/31 06:59:45;;;;;;;7.13;3.88;;;;;;;;;;5073283;28;20036;-80
2022/03/31 07:02:11;;;;;;;6.35;3.28;;;;;;;;;;5057015;28;20044;-80
2022/03/31 07:04:36;;;;;;;7.53;3.65;;;;;;;;;;5056573;28;20048;-80
2022/03/31 07:07:02;;;;;;;7.07;4.00;;;;;;;;;;5073834;28;20154;-80
2022/03/31 07:09:28;;;;;;;7.15;3.63;;;;;;;;;;5090947;28;20040;-80
2022/03/31 07:11:53;;;;;;;9.95;3.88;;;;;;;;;;5057235;28;20114;-80
2022/03/31 07:14:19;;;;;;;8.52;4.43;;;;;;;;;;5078985;28;20490;-80
2022/03/31 07:16:45;;;;;;;6.68;4.75;;;;;;;;;;5056598;28;20139;-80
2022/03/31 07:19:10;;;;;;;8.25;5.03;;;;;;;;;;5073553;28;20039;-80
2022/03/31 07:21:36;;;;;;;10.30;6.70;;;;;;;;;;5073426;28;20450;-80
2022/03/31 07:24:01;;;;;;;10.48;7.07;;;;;;;;;;5050308;28;20040;-80
2022/03/31 07:26:27;;;;;;;10.43;7.10;;;;;;;;;;5094663;28;20091;-80
2022/03/31 07:28:52;;;;;;;12.82;8.75;;;;;;;;;;5077900;28;20123;-79
2022/03/31 07:31:18;;;;;;;10.15;6.97;;;;;;;;;;5093525;28;20043;-80
2022/03/31 07:33:44;;;;;;;10.95;7.90;;;;;;;;;;5076461;28;20035;-79
2022/03/31 07:36:10;;;;;;;13.23;7.47;;;;;;;;;;5094353;28;20414;-80
2022/03/31 07:38:35;;;;;;;10.07;7.35;;;;;;;;;;5077225;28;20062;-81
2022/03/31 07:41:00;;;;;;;12.18;8.00;;;;;;;;;;5077346;28;20035;-80
2022/03/31 07:43:27;;;;;;;12.57;7.88;;;;;;;;;;5094307;28;20123;-80
2022/03/31 07:45:52;;;;;;;11.80;8.50;;;;;;;;;;5093787;28;20111;-80
2022/03/31 07:48:19;;;;;;;9.77;7.65;;;;;;;;;;5082753;28;20163;-80
2022/03/31 07:50:45;;;;;;;9.95;7.13;;;;;;;;;;5093717;28;20046;-80
2022/03/31 07:53:10;;;;;;;12.63;7.68;;;;;;;;;;5077392;28;20040;-80
2022/03/31 07:55:36;;;;;;;14.50;8.10;;;;;;;;;;5060175;28;20032;-80
2022/03/31 07:58:02;;;;;;;12.52;8.50;;;;;;;;;;5072932;28;20036;-80
2022/03/31 08:00:28;;;;;;;10.45;7.90;;;;;;;;;;5075613;28;20034;-80
2022/03/31 08:02:53;;;;;;;12.40;7.90;;;;;;;;;;5061994;28;20110;-80
2022/03/31 08:05:23;;;;;;;11.60;8.45;;;;;;;;;;5078896;28;20058;-80
2022/03/31 08:07:49;;;;;;;10.20;8.02;;;;;;;;;;5062821;28;20039;-80
2022/03/31 08:10:14;;;;;;;10.35;8.25;;;;;;;;;;5063616;28;20115;-80
2022/03/31 08:12:40;;;;;;;10.10;7.68;;;;;;;;;;5080347;28;20036;-80
2022/03/31 08:15:07;;;;;;;12.30;8.68;;;;;;;;;;5081634;28;20058;-80
2022/03/31 08:17:33;;;;;;;11.23;8.60;;;;;;;;;;5076400;28;20406;-80
2022/03/31 08:19:58;;;;;;;10.55;8.43;;;;;;;;;;5059973;28;20047;-80
2022/03/31 08:22:26;;;;;;;9.85;7.85;;;;;;;;;;5060002;28;20036;-79
2022/03/31 08:24:52;;;;;;;10.82;8.15;;;;;;;;;;5076117;28;20111;-80
2022/03/31 08:27:17;;;;;;;13.27;8.82;;;;;;;;;;5076380;28;20158;-80
2022/03/31 08:29:43;;;;;;;11.82;8.70;;;;;;;;;;5076626;28;20064;-80
2022/03/31 08:32:08;;;;;;;11.45;8.52;;;;;;;;;;5059398;28;20028;-80
2022/03/31 08:34:34;;;;;;;11.55;7.95;;;;;;;;;;5075230;28;20048;-79
2022/03/31 08:36:59;;;;;;;11.77;9.07;;;;;;;;;;5042783;28;20504;-80
2022/03/31 08:39:25;;;;;;;12.38;8.82;;;;;;;;;;5059365;28;20061;-80
2022/03/31 08:41:50;;;;;;;11.90;9.30;;;;;;;;;;5075907;28;20094;-80
2022/03/31 08:44:16;;;;;;;13.57;8.65;;;;;;;;;;5075826;28;20036;-80
2022/03/31 08:46:41;;;;;;;11.35;9.43;;;;;;;;;;5093769;28;20093;-80
2022/03/31 08:49:07;;;;;;;13.18;9.35;;;;;;;;;;5096039;28;20051;-80
2022/03/31 08:51:33;;;;;;;11.82;8.68;;;;;;;;;;5079477;28;20081;-80
2022/03/31 08:53:58;;;;;;;11.85;8.80;;;;;;;;;;5078718;28;20050;-80
2022/03/31 08:56:23;;;;;;;11.30;7.97;;;;;;;;;;5079414;28;20031;-80
2022/03/31 08:58:49;;;;;;;12.50;9.25;;;;;;;;;;5096074;28;20047;-79
2022/03/31 09:01:15;;;;;;;10.65;8.93;;;;;;;;;;5095669;28;20023;-80
2022/03/31 09:03:40;;;;;;;11.80;8.02;;;;;;;;;;5095829;28;20039;-80
2022/03/31 09:06:09;;;;;;;9.80;7.30;;;;;;;;;;5079030;28;20031;-79
2022/03/31 09:08:35;;;;;;;11.10;8.30;;;;;;;;;;5062796;28;20126;-80
2022/03/31 09:11:00;;;;;;;11.20;8.45;;;;;;;;;;5062453;28;20417;-80
2022/03/31 09:13:40;;;;;;;9.98;7.55;;;;;;;;;;5078574;28;20040;-80
2022/03/31 09:16:08;;;;;;;10.43;7.53;;;;;;;;;;5080130;28;20035;-79
2022/03/31 09:18:34;;;;;;;10.70;7.32;;;;;;;;;;5079266;28;20394;-79
2022/03/31 09:21:01;;;;;;;10.00;7.50;;;;;;;;;;5078869;28;20031;-80
2022/03/31 09:23:29;;;;;;;9.32;6.90;;;;;;;;;;5095559;28;20036;-80
2022/03/31 09:26:21;;;;;;;9.35;7.38;;;;;;;;;;5095288;28;20088;-79
2022/03/31 09:28:47;;;;;;;10.25;7.60;;;;;;;;;;5107936;28;20040;-79
2022/03/31 09:31:13;;;;;;;9.98;6.78;;;;;;;;;;5078473;28;20031;-80
2022/03/31 09:33:53;;;;;;;9.55;7.05;;;;;;;;;;5094304;28;20071;-80
2022/03/31 09:36:21;;;;;;;9.90;6.80;;;;;;;;;;5080811;28;20031;-79
2022/03/31 09:38:53;;;;;;;10.20;6.78;;;;;;;;;;5112409;28;20077;-80
2022/03/31 09:41:20;;;;;;;11.48;7.70;;;;;;;;;;5112328;28;20034;-80
2022/03/31 09:43:46;;;;;;;11.35;7.50;;;;;;;;;;5094870;28;20550;-79
2022/03/31 09:46:19;;;;;;;10.35;7.28;;;;;;;;;;5078182;28;20497;-80
2022/03/31 09:48:45;;;;;;;10.30;6.90;;;;;;;;;;5095059;28;20036;-79
2022/03/31 09:51:10;;;;;;;8.25;6.20;;;;;;;;;;5095100;28;20045;-80
2022/03/31 09:53:36;;;;;;;8.95;6.72;;;;;;;;;;5111563;28;20039;-79
2022/03/31 09:56:01;;;;;;;10.60;6.45;;;;;;;;;;5094801;28;20036;-80
2022/03/31 09:58:27;;;;;;;10.50;6.75;;;;;;;;;;5094785;28;20039;-79
2022/03/31 10:00:53;;;;;;;8.68;6.20;;;;;;;;;;5091093;28;20036;-80
2022/03/31 10:03:18;;;;;;;8.57;5.75;;;;;;;;;;5091209;28;20042;-80
2022/03/31 10:05:45;;;;;;;7.68;6.00;;;;;;;;;;5074264;28;20046;-80
2022/03/31 10:08:11;;;;;;;8.25;5.80;;;;;;;;;;5058315;28;20397;-80
2022/03/31 10:10:37;;;;;;;7.80;5.72;;;;;;;;;;5074493;28;20115;-80
2022/03/31 10:13:15;;;;;;;9.63;6.32;;;;;;;;;;5057804;28;20486;-80
2022/03/31 10:15:41;;;;;;;8.10;5.38;;;;;;;;;;5058190;28;20051;-80
2022/03/31 10:18:06;;;;;;;8.45;5.07;;;;;;;;;;5057658;28;20028;-80
2022/03/31 10:20:31;;;;;;;6.68;5.13;;;;;;;;;;5074116;28;20486;-80
2022/03/31 10:25:45;;;;;;;6.72;4.65;;;;;;;;;;5096835;28;20042;-80
2022/03/31 10:28:17;;;;;;;8.02;4.88;;;;;;;;;;5093497;28;20501;-80
2022/03/31 10:30:56;;;;;;;7.75;5.32;;;;;;;;;;5111204;28;20046;-80
2022/03/31 10:33:37;;;;;;;6.22;4.13;;;;;;;;;;5111253;28;20039;-80
2022/03/31 10:36:12;;;;;;;7.20;5.00;;;;;;;;;;5094631;28;20039;-80
2022/03/31 10:38:38;;;;;;;6.78;4.63;;;;;;;;;;5078852;28;20023;-80
2022/03/31 10:41:06;;;;;;;6.45;4.20;;;;;;;;;;5077684;28;20378;-80
2022/03/31 10:43:32;;;;;;;5.47;3.85;;;;;;;;;;5060842;28;20524;-81
2022/03/31 10:46:00;;;;;;;7.13;4.05;;;;;;;;;;5077395;28;20040;-81
2022/03/31 10:48:27;;;;;;;6.55;3.83;;;;;;;;;;5094167;28;20032;-80
2022/03/31 10:51:06;;;;;;;5.10;3.97;;;;;;;;;;5077237;28;20039;-80
2022/03/31 10:53:36;;;;;;;6.15;3.95;;;;;;;;;;5078089;28;20034;-80
2022/03/31 10:56:02;;;;;;;5.82;4.13;;;;;;;;;;5060457;28;20076;-80
2022/03/31 10:58:29;;;;;;;5.43;3.67;;;;;;;;;;5076783;28;20106;-80
2022/03/31 11:01:00;;;;;;;4.88;3.22;;;;;;;;;;5073500;28;20047;-80
2022/03/31 11:03:26;;;;;;;5.95;4.00;;;;;;;;;;5057385;28;20074;-80
2022/03/31 11:05:52;;;;;;;5.95;3.47;;;;;;;;;;5073585;28;20036;-81
2022/03/31 11:08:18;;;;;;;5.45;3.65;;;;;;;;;;5073647;28;20038;-80
2022/03/31 11:10:49;;;;;;;5.05;3.22;;;;;;;;;;5057101;28;20062;-80
2022/03/31 11:13:16;;;;;;;4.68;3.22;;;;;;;;;;5041065;28;20072;-80
2022/03/31 11:15:44;;;;;;;5.07;3.60;;;;;;;;;;5073523;28;20039;-80
2022/03/31 11:18:10;;;;;;;4.07;2.75;;;;;;;;;;5090642;28;20063;-80
2022/03/31 11:20:35;;;;;;;5.25;3.47;;;;;;;;;;5056942;28;20475;-80
2022/03/31 11:23:06;;;;;;;5.22;3.10;;;;;;;;;;5076730;28;20035;-80
2022/03/31 11:25:32;;;;;;;5.15;3.30;;;;;;;;;;5060815;28;20031;-80
2022/03/31 11:27:58;;;;;;;4.60;2.90;;;;;;;;;;5060050;28;20039;-80
2022/03/31 11:30:25;;;;;;;4.22;2.92;;;;;;;;;;5093556;28;20500;-80
2022/03/31 11:32:51;;;;;;;4.95;3.08;;;;;;;;;;5092961;28;20032;-80
2022/03/31 11:35:19;;;;;;;5.35;3.15;;;;;;;;;;5060194;28;20028;-80
2022/03/31 11:37:51;;;;;;;4.05;2.60;;;;;;;;;;5094007;28;20031;-80
2022/03/31 11:40:18;;;;;;;4.60;2.63;;;;;;;;;;5093774;28;20036;-80
2022/03/31 11:42:45;;;;;;;5.32;2.80;;;;;;;;;;5093765;28;20035;-80
2022/03/31 11:45:10;;;;;;;4.18;2.75;;;;;;;;;;5093443;28;20039;-80
2022/03/31 11:47:36;;;;;;;4.68;2.60;;;;;;;;;;5092859;28;20032;-80
2022/03/31 11:50:01;;;;;;;3.75;2.25;;;;;;;;;;5076927;28;20046;-80
2022/03/31 11:52:31;;;;;;;4.55;2.35;;;;;;;;;;5076733;28;20481;-80
2022/03/31 11:54:59;;;;;;;4.63;3.13;;;;;;;;;;5076389;28;20040;-80
2022/03/31 11:57:25;;;;;;;4.20;2.72;;;;;;;;;;5073644;28;20064;-80
2022/03/31 11:59:50;;;;;;;4.20;2.67;;;;;;;;;;5067030;28;20042;-80
2022/03/31 12:02:17;;;;;;;4.05;2.63;;;;;;;;;;5076357;28;20036;-80
2022/03/31 12:04:46;;;;;;;4.18;2.65;;;;;;;;;;5076644;28;20389;-80
2022/03/31 12:07:12;;;;;;;4.35;2.20;;;;;;;;;;5077230;28;20028;-80
2022/03/31 12:09:41;;;;;;;3.70;2.15;;;;;;;;;;5075995;28;20036;-80
2022/03/31 12:12:10;;;;;;;4.00;2.15;;;;;;;;;;5063501;28;20028;-80
2022/03/31 12:14:37;;;;;;;4.40;2.55;;;;;;;;;;5085398;28;20039;-80
2022/03/31 12:17:03;;;;;;;4.13;2.10;;;;;;;;;;5043486;28;20039;-80
2022/03/31 12:19:40;;;;;;;3.85;2.40;;;;;;;;;;5043492;28;20036;-80
2022/03/31 12:22:06;;;;;;;4.57;2.17;;;;;;;;;;5043403;28;20123;-81
2022/03/31 12:24:32;;;;;;;5.50;2.55;;;;;;;;;;5058631;28;20469;-80
2022/03/31 12:26:59;;;;;;;4.63;2.67;;;;;;;;;;5059910;28;20072;-80
2022/03/31 12:29:32;;;;;;;4.22;2.30;;;;;;;;;;5060246;28;20052;-80
2022/03/31 12:32:13;;;;;;;3.83;2.45;;;;;;;;;;5077415;28;20029;-80
2022/03/31 12:34:54;;;;;;;4.27;2.43;;;;;;;;;;5089593;28;20036;-80
2022/03/31 12:37:30;;;;;;;4.07;2.33;;;;;;;;;;5097693;28;20376;-80
2022/03/31 12:39:56;;;;;;;4.37;2.63;;;;;;;;;;5059354;28;20501;-79
2022/03/31 12:42:21;;;;;;;4.15;2.30;;;;;;;;;;5079628;28;20240;-79
2022/03/31 12:44:46;;;;;;;3.63;2.28;;;;;;;;;;5082198;28;20028;-79
2022/03/31 12:47:18;;;;;;;5.03;2.20;;;;;;;;;;5077942;28;20040;-79
2022/03/31 12:49:44;;;;;;;4.45;2.78;;;;;;;;;;5076144;28;20044;-79
2022/03/31 12:52:14;;;;;;;4.93;3.35;;;;;;;;;;5092247;28;20444;-80
2022/03/31 12:54:40;;;;;;;5.35;3.10;;;;;;;;;;5075608;28;20032;-79
2022/03/31 12:57:12;;;;;;;4.72;2.80;;;;;;;;;;5076843;28;20461;-79
2022/03/31 12:59:38;;;;;;;6.07;3.30;;;;;;;;;;5075334;28;20077;-79
2022/03/31 13:02:06;;;;;;;5.63;3.20;;;;;;;;;;5075549;28;20042;-79
2022/03/31 13:04:31;;;;;;;6.47;3.58;;;;;;;;;;5095607;28;20036;-79
2022/03/31 13:06:57;;;;;;;5.78;3.42;;;;;;;;;;5089874;28;20102;-79
2022/03/31 13:09:22;;;;;;;5.47;3.63;;;;;;;;;;5075194;28;20039;-79
2022/03/31 13:11:51;;;;;;;5.60;3.00;;;;;;;;;;5079370;28;20024;-79
2022/03/31 13:14:17;;;;;;;5.18;3.25;;;;;;;;;;5075631;28;20039;-79
2022/03/31 13:16:44;;;;;;;16.98;10.30;;;;;;;;;;5041794;28;20032;-79
2022/03/31 13:19:09;;;;;;;57.88;33.22;;;;;;;;;;5058791;28;20036;-80
2022/03/31 13:21:35;;;;;;;83.45;50.28;;;;;;;;;;5058061;28;20478;-80
2022/03/31 13:24:02;;;;;;;89.93;53.08;;;;;;;;;;5066796;28;20032;-79
2022/03/31 13:26:28;;;;;;;70.65;44.45;;;;;;;;;;5075308;28;20039;-79
2022/03/31 13:28:53;;;;;;;60.08;36.95;;;;;;;;;;5058163;28;20040;-80
2022/03/31 13:31:20;;;;;;;55.35;35.10;;;;;;;;;;5052106;28;20032;-79
2022/03/31 13:33:45;;;;;;;52.55;33.40;;;;;;;;;;5058398;28;20040;-80
2022/03/31 13:36:12;;;;;;;53.63;33.00;;;;;;;;;;5102096;28;20035;-80
2022/03/31 13:38:39;;;;;;;50.92;32.03;;;;;;;;;;5061745;28;20024;-80
2022/03/31 13:41:05;;;;;;;49.70;30.08;;;;;;;;;;5095076;28;20035;-80
2022/03/31 13:43:31;;;;;;;48.58;29.83;;;;;;;;;;5078254;28;20566;-79
2022/03/31 13:45:57;;;;;;;48.40;28.70;;;;;;;;;;5094911;28;20040;-79
2022/03/31 13:48:22;;;;;;;43.90;28.35;;;;;;;;;;5077740;28;20084;-80
2022/03/31 13:50:47;;;;;;;45.50;27.42;;;;;;;;;;5094828;28;20405;-79
2022/03/31 13:55:57;;;;;;;37.25;24.02;;;;;;;;;;5082680;28;20032;-79
2022/03/31 14:01:13;;;;;;;34.65;21.40;;;;;;;;;;5079757;28;20126;-79
2022/03/31 14:03:42;;;;;;;31.50;20.35;;;;;;;;;;5042480;28;20406;-79
2022/03/31 14:06:09;;;;;;;33.80;18.88;;;;;;;;;;5041171;28;20032;-80
2022/03/31 14:08:35;;;;;;;32.53;19.33;;;;;;;;;;5057968;28;20032;-80
2022/03/31 14:11:04;;;;;;;26.15;17.85;;;;;;;;;;5057757;28;20067;-80
2022/03/31 14:13:31;;;;;;;24.00;15.93;;;;;;;;;;5076021;28;20040;-79
2022/03/31 14:16:00;;;;;;;28.13;16.73;;;;;;;;;;5077732;28;20035;-79
2022/03/31 14:18:27;;;;;;;25.60;15.48;;;;;;;;;;5078472;28;20512;-80
2022/03/31 14:20:52;;;;;;;24.02;14.15;;;;;;;;;;5094570;28;20486;-80
2022/03/31 14:23:17;;;;;;;25.75;15.05;;;;;;;;;;5094146;28;20042;-80
2022/03/31 14:25:43;;;;;;;23.45;14.68;;;;;;;;;;5077305;28;20043;-79
2022/03/31 14:28:08;;;;;;;22.08;14.13;;;;;;;;;;5077650;28;20049;-79
2022/03/31 14:30:34;;;;;;;20.45;12.95;;;;;;;;;;5077141;28;20077;-79
2022/03/31 14:32:59;;;;;;;21.38;13.25;;;;;;;;;;5109495;28;20144;-79
2022/03/31 14:35:24;;;;;;;21.08;13.15;;;;;;;;;;5094027;28;20044;-80
2022/03/31 14:37:50;;;;;;;21.23;12.98;;;;;;;;;;5076476;28;20109;-79
2022/03/31 14:40:16;;;;;;;19.77;11.52;;;;;;;;;;5110736;28;20031;-79
2022/03/31 14:42:41;;;;;;;17.15;11.18;;;;;;;;;;5076620;28;20122;-80
2022/03/31 14:45:07;;;;;;;16.73;10.18;;;;;;;;;;5077226;28;20111;-80
2022/03/31 14:47:33;;;;;;;19.25;11.35;;;;;;;;;;5082856;28;20509;-80